sensor_id;sensor_type;location;lat;lon;timestamp;temperature;humidity
35531;DHT22;21637;53.352;-6.356;2024-02-28T00:02:00;6.10;99.90
35531;DHT22;21637;53.352;-6.356;2024-02-28T00:04:26;6.10;99.90
35531;DHT22;21637;53.352;-6.356;2024-02-28T00:06:52;6.20;99.90
35531;DHT22;21637;53.352;-6.356;2024-02-28T00:09:18;6.10;99.90
35531;DHT22;21637;53.352;-6.356;2024-02-28T00:11:44;6.10;99.90
35531;DHT22;21637;53.352;-6.356;2024-02-28T00:14:11;6.10;99.90
35531;DHT22;21637;53.352;-6.356;2024-02-28T00:16:40;6.00;99.90
35531;DHT22;21637;53.352;-6.356;2024-02-28T00:19:07;6.00;99.90
35531;DHT22;21637;53.352;-6.356;2024-02-28T00:21:32;6.00;99.90
35531;DHT22;21637;53.352;-6.356;2024-02-28T00:23:58;6.00;99.90
35531;DHT22;21637;53.352;-6.356;2024-02-28T00:26:24;6.00;99.90
35531;DHT22;21637;53.352;-6.356;2024-02-28T00:28:49;6.00;99.90
35531;DHT22;21637;53.352;-6.356;2024-02-28T00:31:15;5.90;99.90
35531;DHT22;21637;53.352;-6.356;2024-02-28T00:33:41;5.90;99.90
35531;DHT22;21637;53.352;-6.356;2024-02-28T00:36:07;5.90;99.90
35531;DHT22;21637;53.352;-6.356;2024-02-28T00:38:32;5.90;99.90
35531;DHT22;21637;53.352;-6.356;2024-02-28T00:40:58;5.90;99.90
35531;DHT22;21637;53.352;-6.356;2024-02-28T00:43:24;5.90;99.90
35531;DHT22;21637;53.352;-6.356;2024-02-28T00:45:49;5.80;99.90
35531;DHT22;21637;53.352;-6.356;2024-02-28T00:48:15;5.80;99.90
35531;DHT22;21637;53.352;-6.356;2024-02-28T00:50:41;5.90;99.90
35531;DHT22;21637;53.352;-6.356;2024-02-28T00:53:06;5.80;99.90
35531;DHT22;21637;53.352;-6.356;2024-02-28T00:55:32;5.90;99.90
35531;DHT22;21637;53.352;-6.356;2024-02-28T00:57:58;5.80;99.90
35531;DHT22;21637;53.352;-6.356;2024-02-28T01:00:24;5.90;99.90
35531;DHT22;21637;53.352;-6.356;2024-02-28T01:02:49;5.80;99.90
35531;DHT22;21637;53.352;-6.356;2024-02-28T01:05:15;5.80;99.90
35531;DHT22;21637;53.352;-6.356;2024-02-28T01:07:41;5.90;99.90
35531;DHT22;21637;53.352;-6.356;2024-02-28T01:10:07;6.00;99.90
35531;DHT22;21637;53.352;-6.356;2024-02-28T01:12:33;6.00;99.90
35531;DHT22;21637;53.352;-6.356;2024-02-28T01:14:59;6.00;99.90
35531;DHT22;21637;53.352;-6.356;2024-02-28T01:17:24;6.00;99.90
35531;DHT22;21637;53.352;-6.356;2024-02-28T01:19:50;6.00;99.90
35531;DHT22;21637;53.352;-6.356;2024-02-28T01:22:16;6.00;99.90
35531;DHT22;21637;53.352;-6.356;2024-02-28T01:24:42;6.10;99.90
35531;DHT22;21637;53.352;-6.356;2024-02-28T01:27:07;6.10;99.90
35531;DHT22;21637;53.352;-6.356;2024-02-28T01:29:33;6.20;99.90
35531;DHT22;21637;53.352;-6.356;2024-02-28T01:31:59;6.20;99.90
35531;DHT22;21637;53.352;-6.356;2024-02-28T01:34:25;6.30;99.90
35531;DHT22;21637;53.352;-6.356;2024-02-28T01:36:50;6.30;99.90
35531;DHT22;21637;53.352;-6.356;2024-02-28T01:39:16;6.30;99.90
35531;DHT22;21637;53.352;-6.356;2024-02-28T01:41:51;6.40;99.90
35531;DHT22;21637;53.352;-6.356;2024-02-28T01:44:17;6.30;99.90
35531;DHT22;21637;53.352;-6.356;2024-02-28T01:46:43;6.30;99.90
35531;DHT22;21637;53.352;-6.356;2024-02-28T01:49:09;6.40;99.90
35531;DHT22;21637;53.352;-6.356;2024-02-28T01:51:35;6.40;99.90
35531;DHT22;21637;53.352;-6.356;2024-02-28T01:54:01;6.40;99.90
35531;DHT22;21637;53.352;-6.356;2024-02-28T01:56:27;6.50;99.90
35531;DHT22;21637;53.352;-6.356;2024-02-28T01:58:54;6.60;99.90
35531;DHT22;21637;53.352;-6.356;2024-02-28T02:01:20;6.60;99.90
35531;DHT22;21637;53.352;-6.356;2024-02-28T02:03:46;6.60;99.90
35531;DHT22;21637;53.352;-6.356;2024-02-28T02:06:12;6.60;99.90
35531;DHT22;21637;53.352;-6.356;2024-02-28T02:08:38;6.70;99.90
35531;DHT22;21637;53.352;-6.356;2024-02-28T02:11:05;6.70;99.90
35531;DHT22;21637;53.352;-6.356;2024-02-28T02:13:32;6.70;99.90
35531;DHT22;21637;53.352;-6.356;2024-02-28T02:15:57;6.80;99.90
35531;DHT22;21637;53.352;-6.356;2024-02-28T02:18:23;6.80;99.90
35531;DHT22;21637;53.352;-6.356;2024-02-28T02:20:56;6.80;99.90
35531;DHT22;21637;53.352;-6.356;2024-02-28T02:23:24;6.80;99.90
35531;DHT22;21637;53.352;-6.356;2024-02-28T02:25:50;6.80;99.90
35531;DHT22;21637;53.352;-6.356;2024-02-28T02:28:15;6.80;99.90
35531;DHT22;21637;53.352;-6.356;2024-02-28T02:30:41;6.90;99.90
35531;DHT22;21637;53.352;-6.356;2024-02-28T02:33:08;6.90;99.90
35531;DHT22;21637;53.352;-6.356;2024-02-28T02:35:34;6.90;99.90
35531;DHT22;21637;53.352;-6.356;2024-02-28T02:38:00;6.90;99.90
35531;DHT22;21637;53.352;-6.356;2024-02-28T02:40:26;6.90;99.90
35531;DHT22;21637;53.352;-6.356;2024-02-28T02:42:52;6.90;99.90
35531;DHT22;21637;53.352;-6.356;2024-02-28T02:45:17;7.00;99.90
35531;DHT22;21637;53.352;-6.356;2024-02-28T02:47:43;7.00;99.90
35531;DHT22;21637;53.352;-6.356;2024-02-28T02:50:12;7.00;99.90
35531;DHT22;21637;53.352;-6.356;2024-02-28T02:52:38;7.00;99.90
35531;DHT22;21637;53.352;-6.356;2024-02-28T02:55:04;7.00;99.90
35531;DHT22;21637;53.352;-6.356;2024-02-28T02:57:31;7.00;99.90
35531;DHT22;21637;53.352;-6.356;2024-02-28T02:59:57;7.00;99.90
35531;DHT22;21637;53.352;-6.356;2024-02-28T03:02:23;7.00;99.90
35531;DHT22;21637;53.352;-6.356;2024-02-28T03:04:48;7.00;99.90
35531;DHT22;21637;53.352;-6.356;2024-02-28T03:07:14;7.00;99.90
35531;DHT22;21637;53.352;-6.356;2024-02-28T03:09:40;7.00;99.90
35531;DHT22;21637;53.352;-6.356;2024-02-28T03:12:06;7.00;99.90
35531;DHT22;21637;53.352;-6.356;2024-02-28T03:14:32;7.00;99.90
35531;DHT22;21637;53.352;-6.356;2024-02-28T03:16:58;7.00;99.90
35531;DHT22;21637;53.352;-6.356;2024-02-28T03:19:24;7.00;99.90
35531;DHT22;21637;53.352;-6.356;2024-02-28T03:21:49;7.00;99.90
35531;DHT22;21637;53.352;-6.356;2024-02-28T03:24:15;7.00;99.90
35531;DHT22;21637;53.352;-6.356;2024-02-28T03:26:42;7.00;99.90
35531;DHT22;21637;53.352;-6.356;2024-02-28T03:29:09;7.00;99.90
35531;DHT22;21637;53.352;-6.356;2024-02-28T03:31:34;6.90;99.90
35531;DHT22;21637;53.352;-6.356;2024-02-28T03:34:00;6.90;99.90
35531;DHT22;21637;53.352;-6.356;2024-02-28T03:36:28;6.90;99.90
35531;DHT22;21637;53.352;-6.356;2024-02-28T03:38:54;6.90;99.90
35531;DHT22;21637;53.352;-6.356;2024-02-28T03:41:19;6.80;99.90
35531;DHT22;21637;53.352;-6.356;2024-02-28T03:43:45;6.80;99.90
35531;DHT22;21637;53.352;-6.356;2024-02-28T03:46:11;6.80;99.90
35531;DHT22;21637;53.352;-6.356;2024-02-28T03:48:37;6.80;99.90
35531;DHT22;21637;53.352;-6.356;2024-02-28T03:51:03;6.80;99.90
35531;DHT22;21637;53.352;-6.356;2024-02-28T03:53:28;6.80;99.90
35531;DHT22;21637;53.352;-6.356;2024-02-28T03:55:55;6.80;99.90
35531;DHT22;21637;53.352;-6.356;2024-02-28T03:58:20;6.80;99.90
35531;DHT22;21637;53.352;-6.356;2024-02-28T04:00:46;6.70;99.90
35531;DHT22;21637;53.352;-6.356;2024-02-28T04:03:12;6.70;99.90
35531;DHT22;21637;53.352;-6.356;2024-02-28T04:05:40;6.70;99.90
35531;DHT22;21637;53.352;-6.356;2024-02-28T04:08:06;6.70;99.90
35531;DHT22;21637;53.352;-6.356;2024-02-28T04:10:31;6.80;99.90
35531;DHT22;21637;53.352;-6.356;2024-02-28T04:12:57;6.80;99.90
35531;DHT22;21637;53.352;-6.356;2024-02-28T04:15:23;6.80;99.90
35531;DHT22;21637;53.352;-6.356;2024-02-28T04:17:51;6.80;99.90
35531;DHT22;21637;53.352;-6.356;2024-02-28T04:20:17;6.70;99.90
35531;DHT22;21637;53.352;-6.356;2024-02-28T04:22:43;6.70;99.90
35531;DHT22;21637;53.352;-6.356;2024-02-28T04:25:09;6.70;99.90
35531;DHT22;21637;53.352;-6.356;2024-02-28T04:27:36;6.70;99.90
35531;DHT22;21637;53.352;-6.356;2024-02-28T04:30:02;6.80;99.90
35531;DHT22;21637;53.352;-6.356;2024-02-28T04:32:28;6.80;99.90
35531;DHT22;21637;53.352;-6.356;2024-02-28T04:34:53;6.80;99.90
35531;DHT22;21637;53.352;-6.356;2024-02-28T04:37:19;6.80;99.90
35531;DHT22;21637;53.352;-6.356;2024-02-28T04:39:45;6.90;99.90
35531;DHT22;21637;53.352;-6.356;2024-02-28T04:42:10;6.90;99.90
35531;DHT22;21637;53.352;-6.356;2024-02-28T04:44:36;7.00;99.90
35531;DHT22;21637;53.352;-6.356;2024-02-28T04:47:02;7.00;99.90
35531;DHT22;21637;53.352;-6.356;2024-02-28T04:49:28;7.10;99.90
35531;DHT22;21637;53.352;-6.356;2024-02-28T04:51:54;7.20;99.90
35531;DHT22;21637;53.352;-6.356;2024-02-28T04:54:19;7.30;99.90
35531;DHT22;21637;53.352;-6.356;2024-02-28T04:56:45;7.40;99.90
35531;DHT22;21637;53.352;-6.356;2024-02-28T04:59:12;7.50;99.90
35531;DHT22;21637;53.352;-6.356;2024-02-28T05:01:41;7.40;99.90
35531;DHT22;21637;53.352;-6.356;2024-02-28T05:04:11;7.50;99.90
35531;DHT22;21637;53.352;-6.356;2024-02-28T05:06:37;7.50;99.90
35531;DHT22;21637;53.352;-6.356;2024-02-28T05:09:03;7.60;99.90
35531;DHT22;21637;53.352;-6.356;2024-02-28T05:11:28;7.60;99.90
35531;DHT22;21637;53.352;-6.356;2024-02-28T05:13:54;7.60;99.90
35531;DHT22;21637;53.352;-6.356;2024-02-28T05:16:20;7.70;99.90
35531;DHT22;21637;53.352;-6.356;2024-02-28T05:18:46;7.70;99.90
35531;DHT22;21637;53.352;-6.356;2024-02-28T05:21:12;7.80;99.90
35531;DHT22;21637;53.352;-6.356;2024-02-28T05:23:38;7.80;99.90
35531;DHT22;21637;53.352;-6.356;2024-02-28T05:26:04;7.80;99.90
35531;DHT22;21637;53.352;-6.356;2024-02-28T05:28:31;7.80;99.90
35531;DHT22;21637;53.352;-6.356;2024-02-28T05:30:58;7.80;99.90
35531;DHT22;21637;53.352;-6.356;2024-02-28T05:33:25;7.90;99.90
35531;DHT22;21637;53.352;-6.356;2024-02-28T05:35:51;7.90;99.90
35531;DHT22;21637;53.352;-6.356;2024-02-28T05:38:16;7.90;99.90
35531;DHT22;21637;53.352;-6.356;2024-02-28T05:40:42;7.90;99.90
35531;DHT22;21637;53.352;-6.356;2024-02-28T05:43:08;7.90;99.90
35531;DHT22;21637;53.352;-6.356;2024-02-28T05:45:34;7.90;99.90
35531;DHT22;21637;53.352;-6.356;2024-02-28T05:47:59;7.90;99.90
35531;DHT22;21637;53.352;-6.356;2024-02-28T05:50:25;7.90;99.90
35531;DHT22;21637;53.352;-6.356;2024-02-28T05:52:51;7.90;99.90
35531;DHT22;21637;53.352;-6.356;2024-02-28T05:55:17;7.90;99.90
35531;DHT22;21637;53.352;-6.356;2024-02-28T05:57:43;7.90;99.90
35531;DHT22;21637;53.352;-6.356;2024-02-28T06:00:09;7.80;99.90
35531;DHT22;21637;53.352;-6.356;2024-02-28T06:02:38;7.80;99.90
35531;DHT22;21637;53.352;-6.356;2024-02-28T06:05:04;7.80;99.90
35531;DHT22;21637;53.352;-6.356;2024-02-28T06:07:30;7.80;99.90
35531;DHT22;21637;53.352;-6.356;2024-02-28T06:09:56;7.80;99.90
35531;DHT22;21637;53.352;-6.356;2024-02-28T06:12:22;7.70;99.90
35531;DHT22;21637;53.352;-6.356;2024-02-28T06:14:48;7.60;99.90
35531;DHT22;21637;53.352;-6.356;2024-02-28T06:17:14;7.60;99.90
35531;DHT22;21637;53.352;-6.356;2024-02-28T06:19:39;7.50;99.90
35531;DHT22;21637;53.352;-6.356;2024-02-28T06:22:05;7.40;99.90
35531;DHT22;21637;53.352;-6.356;2024-02-28T06:24:34;7.40;99.90
35531;DHT22;21637;53.352;-6.356;2024-02-28T06:27:00;7.40;99.90
35531;DHT22;21637;53.352;-6.356;2024-02-28T06:29:26;7.20;99.90
35531;DHT22;21637;53.352;-6.356;2024-02-28T06:31:52;7.20;99.90
35531;DHT22;21637;53.352;-6.356;2024-02-28T06:34:17;7.20;99.90
35531;DHT22;21637;53.352;-6.356;2024-02-28T06:36:44;7.20;99.90
35531;DHT22;21637;53.352;-6.356;2024-02-28T06:39:10;7.20;99.90
35531;DHT22;21637;53.352;-6.356;2024-02-28T06:41:35;7.10;99.90
35531;DHT22;21637;53.352;-6.356;2024-02-28T06:44:01;7.10;99.90
35531;DHT22;21637;53.352;-6.356;2024-02-28T06:46:27;7.00;99.90
35531;DHT22;21637;53.352;-6.356;2024-02-28T06:48:53;6.90;99.90
35531;DHT22;21637;53.352;-6.356;2024-02-28T06:51:18;6.90;99.90
35531;DHT22;21637;53.352;-6.356;2024-02-28T06:53:44;6.80;99.90
35531;DHT22;21637;53.352;-6.356;2024-02-28T06:56:10;6.90;99.90
35531;DHT22;21637;53.352;-6.356;2024-02-28T06:58:36;6.80;99.90
35531;DHT22;21637;53.352;-6.356;2024-02-28T07:01:02;6.80;99.90
35531;DHT22;21637;53.352;-6.356;2024-02-28T07:03:29;6.80;99.90
35531;DHT22;21637;53.352;-6.356;2024-02-28T07:05:55;6.80;99.90
35531;DHT22;21637;53.352;-6.356;2024-02-28T07:08:21;6.80;99.90
35531;DHT22;21637;53.352;-6.356;2024-02-28T07:10:47;6.80;99.90
35531;DHT22;21637;53.352;-6.356;2024-02-28T07:13:15;6.70;99.90
35531;DHT22;21637;53.352;-6.356;2024-02-28T07:15:41;6.80;99.90
35531;DHT22;21637;53.352;-6.356;2024-02-28T07:18:07;6.70;99.90
35531;DHT22;21637;53.352;-6.356;2024-02-28T07:20:33;6.80;99.90
35531;DHT22;21637;53.352;-6.356;2024-02-28T07:22:59;6.80;99.90
35531;DHT22;21637;53.352;-6.356;2024-02-28T07:25:25;6.70;99.90
35531;DHT22;21637;53.352;-6.356;2024-02-28T07:27:51;6.80;99.90
35531;DHT22;21637;53.352;-6.356;2024-02-28T07:30:17;6.80;99.90
35531;DHT22;21637;53.352;-6.356;2024-02-28T07:32:43;6.80;99.90
35531;DHT22;21637;53.352;-6.356;2024-02-28T07:35:09;6.80;99.90
35531;DHT22;21637;53.352;-6.356;2024-02-28T07:37:34;6.80;99.90
35531;DHT22;21637;53.352;-6.356;2024-02-28T07:40:00;6.80;99.90
35531;DHT22;21637;53.352;-6.356;2024-02-28T07:42:26;6.90;99.90
35531;DHT22;21637;53.352;-6.356;2024-02-28T07:44:52;6.90;99.90
35531;DHT22;21637;53.352;-6.356;2024-02-28T07:47:22;6.90;99.90
35531;DHT22;21637;53.352;-6.356;2024-02-28T07:49:49;7.00;99.90
35531;DHT22;21637;53.352;-6.356;2024-02-28T07:52:15;7.00;99.90
35531;DHT22;21637;53.352;-6.356;2024-02-28T07:54:43;7.00;99.90
35531;DHT22;21637;53.352;-6.356;2024-02-28T07:57:09;7.10;99.90
35531;DHT22;21637;53.352;-6.356;2024-02-28T07:59:41;7.40;99.90
35531;DHT22;21637;53.352;-6.356;2024-02-28T08:02:07;7.80;99.90
35531;DHT22;21637;53.352;-6.356;2024-02-28T08:04:33;8.00;99.90
35531;DHT22;21637;53.352;-6.356;2024-02-28T08:07:00;8.10;99.90
35531;DHT22;21637;53.352;-6.356;2024-02-28T08:09:25;8.20;99.90
35531;DHT22;21637;53.352;-6.356;2024-02-28T08:11:51;8.40;99.90
35531;DHT22;21637;53.352;-6.356;2024-02-28T08:14:17;8.50;99.90
35531;DHT22;21637;53.352;-6.356;2024-02-28T08:16:43;8.50;99.90
35531;DHT22;21637;53.352;-6.356;2024-02-28T08:19:09;8.60;99.90
35531;DHT22;21637;53.352;-6.356;2024-02-28T08:21:34;8.60;99.90
35531;DHT22;21637;53.352;-6.356;2024-02-28T08:24:00;8.70;99.90
35531;DHT22;21637;53.352;-6.356;2024-02-28T08:26:30;8.70;99.90
35531;DHT22;21637;53.352;-6.356;2024-02-28T08:28:56;8.90;99.90
35531;DHT22;21637;53.352;-6.356;2024-02-28T08:31:21;9.00;99.90
35531;DHT22;21637;53.352;-6.356;2024-02-28T08:33:47;9.00;99.90
35531;DHT22;21637;53.352;-6.356;2024-02-28T08:36:13;9.10;99.90
35531;DHT22;21637;53.352;-6.356;2024-02-28T08:38:40;9.10;99.90
35531;DHT22;21637;53.352;-6.356;2024-02-28T08:41:07;9.10;99.90
35531;DHT22;21637;53.352;-6.356;2024-02-28T08:43:42;9.10;99.90
35531;DHT22;21637;53.352;-6.356;2024-02-28T08:46:08;9.30;99.90
35531;DHT22;21637;53.352;-6.356;2024-02-28T08:48:34;9.20;99.90
35531;DHT22;21637;53.352;-6.356;2024-02-28T08:50:59;9.30;99.90
35531;DHT22;21637;53.352;-6.356;2024-02-28T08:53:26;9.40;99.90
35531;DHT22;21637;53.352;-6.356;2024-02-28T08:55:51;9.60;99.90
35531;DHT22;21637;53.352;-6.356;2024-02-28T08:58:17;9.60;99.90
35531;DHT22;21637;53.352;-6.356;2024-02-28T09:00:43;9.60;99.90
35531;DHT22;21637;53.352;-6.356;2024-02-28T09:03:09;9.70;99.90
35531;DHT22;21637;53.352;-6.356;2024-02-28T09:05:34;9.70;99.90
35531;DHT22;21637;53.352;-6.356;2024-02-28T09:08:01;9.70;99.90
35531;DHT22;21637;53.352;-6.356;2024-02-28T09:10:27;9.70;99.90
35531;DHT22;21637;53.352;-6.356;2024-02-28T09:12:54;9.70;99.90
35531;DHT22;21637;53.352;-6.356;2024-02-28T09:15:20;9.90;99.90
35531;DHT22;21637;53.352;-6.356;2024-02-28T09:17:46;9.90;99.90
35531;DHT22;21637;53.352;-6.356;2024-02-28T09:20:12;10.00;99.90
35531;DHT22;21637;53.352;-6.356;2024-02-28T09:22:38;10.20;99.90
35531;DHT22;21637;53.352;-6.356;2024-02-28T09:25:04;10.30;99.90
35531;DHT22;21637;53.352;-6.356;2024-02-28T09:27:31;10.50;99.90
35531;DHT22;21637;53.352;-6.356;2024-02-28T09:29:57;10.50;99.90
35531;DHT22;21637;53.352;-6.356;2024-02-28T09:32:22;10.50;99.90
35531;DHT22;21637;53.352;-6.356;2024-02-28T09:34:48;10.50;99.90
35531;DHT22;21637;53.352;-6.356;2024-02-28T09:37:14;10.60;99.90
35531;DHT22;21637;53.352;-6.356;2024-02-28T09:39:42;10.50;99.90
35531;DHT22;21637;53.352;-6.356;2024-02-28T09:42:09;10.50;99.90
35531;DHT22;21637;53.352;-6.356;2024-02-28T09:44:36;10.50;99.90
35531;DHT22;21637;53.352;-6.356;2024-02-28T09:47:02;10.50;99.90
35531;DHT22;21637;53.352;-6.356;2024-02-28T09:49:31;10.60;99.90
35531;DHT22;21637;53.352;-6.356;2024-02-28T09:51:58;10.70;99.90
35531;DHT22;21637;53.352;-6.356;2024-02-28T09:54:25;10.80;99.90
35531;DHT22;21637;53.352;-6.356;2024-02-28T09:56:51;10.80;99.90
35531;DHT22;21637;53.352;-6.356;2024-02-28T09:59:20;10.80;99.90
35531;DHT22;21637;53.352;-6.356;2024-02-28T10:01:55;11.00;99.90
35531;DHT22;21637;53.352;-6.356;2024-02-28T10:04:21;11.00;99.90
35531;DHT22;21637;53.352;-6.356;2024-02-28T10:06:48;11.10;99.90
35531;DHT22;21637;53.352;-6.356;2024-02-28T10:09:15;11.20;99.90
35531;DHT22;21637;53.352;-6.356;2024-02-28T10:11:41;11.30;99.90
35531;DHT22;21637;53.352;-6.356;2024-02-28T10:14:09;11.30;99.90
35531;DHT22;21637;53.352;-6.356;2024-02-28T10:16:35;11.40;99.90
35531;DHT22;21637;53.352;-6.356;2024-02-28T10:19:01;11.40;99.90
35531;DHT22;21637;53.352;-6.356;2024-02-28T10:21:26;11.50;99.90
35531;DHT22;21637;53.352;-6.356;2024-02-28T10:23:52;11.60;99.90
35531;DHT22;21637;53.352;-6.356;2024-02-28T10:26:18;11.60;99.90
35531;DHT22;21637;53.352;-6.356;2024-02-28T10:28:43;11.70;99.90
35531;DHT22;21637;53.352;-6.356;2024-02-28T10:31:10;11.70;99.90
35531;DHT22;21637;53.352;-6.356;2024-02-28T10:33:37;11.80;99.90
35531;DHT22;21637;53.352;-6.356;2024-02-28T10:36:04;11.80;99.90
35531;DHT22;21637;53.352;-6.356;2024-02-28T10:38:31;11.80;99.90
35531;DHT22;21637;53.352;-6.356;2024-02-28T10:41:02;11.80;99.90
35531;DHT22;21637;53.352;-6.356;2024-02-28T10:43:29;11.90;99.90
35531;DHT22;21637;53.352;-6.356;2024-02-28T10:45:58;11.90;99.90
35531;DHT22;21637;53.352;-6.356;2024-02-28T10:48:25;11.90;99.90
35531;DHT22;21637;53.352;-6.356;2024-02-28T10:50:51;11.90;99.90
35531;DHT22;21637;53.352;-6.356;2024-02-28T10:53:21;12.00;99.90
35531;DHT22;21637;53.352;-6.356;2024-02-28T10:55:48;11.90;99.90
35531;DHT22;21637;53.352;-6.356;2024-02-28T10:58:14;12.00;99.90
35531;DHT22;21637;53.352;-6.356;2024-02-28T11:00:42;12.10;99.90
35531;DHT22;21637;53.352;-6.356;2024-02-28T11:03:11;12.00;99.90
35531;DHT22;21637;53.352;-6.356;2024-02-28T11:05:42;12.10;99.90
35531;DHT22;21637;53.352;-6.356;2024-02-28T11:08:09;12.10;99.90
35531;DHT22;21637;53.352;-6.356;2024-02-28T11:10:35;12.20;99.90
35531;DHT22;21637;53.352;-6.356;2024-02-28T11:13:01;12.20;99.90
35531;DHT22;21637;53.352;-6.356;2024-02-28T11:15:27;12.20;99.90
35531;DHT22;21637;53.352;-6.356;2024-02-28T11:17:53;12.20;99.90
35531;DHT22;21637;53.352;-6.356;2024-02-28T11:20:19;12.20;99.90
35531;DHT22;21637;53.352;-6.356;2024-02-28T11:22:45;12.30;99.90
35531;DHT22;21637;53.352;-6.356;2024-02-28T11:25:11;12.30;99.90
35531;DHT22;21637;53.352;-6.356;2024-02-28T11:27:47;12.30;99.90
35531;DHT22;21637;53.352;-6.356;2024-02-28T11:30:14;12.30;99.90
35531;DHT22;21637;53.352;-6.356;2024-02-28T11:32:41;12.30;99.90
35531;DHT22;21637;53.352;-6.356;2024-02-28T11:35:07;12.40;99.90
35531;DHT22;21637;53.352;-6.356;2024-02-28T11:37:34;12.40;99.90
35531;DHT22;21637;53.352;-6.356;2024-02-28T11:40:00;12.40;99.90
35531;DHT22;21637;53.352;-6.356;2024-02-28T11:42:25;12.50;99.90
35531;DHT22;21637;53.352;-6.356;2024-02-28T11:44:55;12.60;99.90
35531;DHT22;21637;53.352;-6.356;2024-02-28T11:47:22;12.70;99.90
35531;DHT22;21637;53.352;-6.356;2024-02-28T11:49:49;12.70;99.90
35531;DHT22;21637;53.352;-6.356;2024-02-28T11:52:15;12.80;99.90
35531;DHT22;21637;53.352;-6.356;2024-02-28T11:54:40;12.80;99.90
35531;DHT22;21637;53.352;-6.356;2024-02-28T11:57:07;12.90;99.90
35531;DHT22;21637;53.352;-6.356;2024-02-28T11:59:36;12.90;99.90
35531;DHT22;21637;53.352;-6.356;2024-02-28T12:02:11;13.00;99.90
35531;DHT22;21637;53.352;-6.356;2024-02-28T12:04:42;13.10;99.90
35531;DHT22;21637;53.352;-6.356;2024-02-28T12:07:08;13.10;99.90
35531;DHT22;21637;53.352;-6.356;2024-02-28T12:09:34;13.20;99.90
35531;DHT22;21637;53.352;-6.356;2024-02-28T12:12:03;13.20;99.90
35531;DHT22;21637;53.352;-6.356;2024-02-28T12:14:37;13.20;99.90
35531;DHT22;21637;53.352;-6.356;2024-02-28T12:17:08;13.20;99.90
35531;DHT22;21637;53.352;-6.356;2024-02-28T12:19:35;13.20;99.90
35531;DHT22;21637;53.352;-6.356;2024-02-28T12:22:01;13.30;99.90
35531;DHT22;21637;53.352;-6.356;2024-02-28T12:24:27;13.30;99.90
35531;DHT22;21637;53.352;-6.356;2024-02-28T12:26:53;13.30;99.90
35531;DHT22;21637;53.352;-6.356;2024-02-28T12:29:18;13.30;99.90
35531;DHT22;21637;53.352;-6.356;2024-02-28T12:31:44;13.30;99.90
35531;DHT22;21637;53.352;-6.356;2024-02-28T12:34:10;13.30;99.90
35531;DHT22;21637;53.352;-6.356;2024-02-28T12:36:35;13.30;99.90
35531;DHT22;21637;53.352;-6.356;2024-02-28T12:39:02;13.30;99.90
35531;DHT22;21637;53.352;-6.356;2024-02-28T12:41:28;13.30;99.90
35531;DHT22;21637;53.352;-6.356;2024-02-28T12:43:54;13.20;99.90
35531;DHT22;21637;53.352;-6.356;2024-02-28T12:46:20;13.20;99.90
35531;DHT22;21637;53.352;-6.356;2024-02-28T12:48:45;13.20;99.90
35531;DHT22;21637;53.352;-6.356;2024-02-28T12:51:35;13.20;99.90
35531;DHT22;21637;53.352;-6.356;2024-02-28T12:54:01;13.20;99.90
35531;DHT22;21637;53.352;-6.356;2024-02-28T12:56:27;13.20;99.90
35531;DHT22;21637;53.352;-6.356;2024-02-28T12:58:53;13.10;99.90
35531;DHT22;21637;53.352;-6.356;2024-02-28T13:01:19;13.10;99.90
35531;DHT22;21637;53.352;-6.356;2024-02-28T13:03:45;13.10;99.90
35531;DHT22;21637;53.352;-6.356;2024-02-28T13:06:10;13.10;99.90
35531;DHT22;21637;53.352;-6.356;2024-02-28T13:08:36;13.10;99.90
35531;DHT22;21637;53.352;-6.356;2024-02-28T13:11:02;13.10;99.90
35531;DHT22;21637;53.352;-6.356;2024-02-28T13:13:29;13.10;99.90
35531;DHT22;21637;53.352;-6.356;2024-02-28T13:15:54;13.10;99.90
35531;DHT22;21637;53.352;-6.356;2024-02-28T13:18:20;13.00;99.90
35531;DHT22;21637;53.352;-6.356;2024-02-28T13:20:46;13.00;99.90
35531;DHT22;21637;53.352;-6.356;2024-02-28T13:23:11;13.00;99.90
35531;DHT22;21637;53.352;-6.356;2024-02-28T13:25:37;13.10;99.90
35531;DHT22;21637;53.352;-6.356;2024-02-28T13:28:03;13.10;99.90
35531;DHT22;21637;53.352;-6.356;2024-02-28T13:30:29;13.10;99.90
35531;DHT22;21637;53.352;-6.356;2024-02-28T13:32:55;13.00;99.90
35531;DHT22;21637;53.352;-6.356;2024-02-28T13:35:20;13.10;99.90
35531;DHT22;21637;53.352;-6.356;2024-02-28T13:37:46;13.00;99.90
35531;DHT22;21637;53.352;-6.356;2024-02-28T13:40:12;13.10;99.90
35531;DHT22;21637;53.352;-6.356;2024-02-28T13:42:38;13.00;99.90
35531;DHT22;21637;53.352;-6.356;2024-02-28T13:45:05;13.00;99.90
35531;DHT22;21637;53.352;-6.356;2024-02-28T13:47:34;13.00;99.90
35531;DHT22;21637;53.352;-6.356;2024-02-28T13:50:01;13.10;99.90
35531;DHT22;21637;53.352;-6.356;2024-02-28T13:52:27;13.10;99.90
35531;DHT22;21637;53.352;-6.356;2024-02-28T13:54:52;13.10;99.90
35531;DHT22;21637;53.352;-6.356;2024-02-28T13:57:18;13.20;99.90
35531;DHT22;21637;53.352;-6.356;2024-02-28T13:59:44;13.20;99.90
35531;DHT22;21637;53.352;-6.356;2024-02-28T14:02:14;13.20;99.90
35531;DHT22;21637;53.352;-6.356;2024-02-28T14:04:40;13.20;99.90
35531;DHT22;21637;53.352;-6.356;2024-02-28T14:07:08;13.10;99.90
35531;DHT22;21637;53.352;-6.356;2024-02-28T14:09:34;13.20;99.90
35531;DHT22;21637;53.352;-6.356;2024-02-28T14:12:00;13.20;99.90
35531;DHT22;21637;53.352;-6.356;2024-02-28T14:14:26;13.20;99.90
35531;DHT22;21637;53.352;-6.356;2024-02-28T14:16:52;13.10;99.90
35531;DHT22;21637;53.352;-6.356;2024-02-28T14:19:18;13.20;99.90
35531;DHT22;21637;53.352;-6.356;2024-02-28T14:21:44;13.20;99.90
35531;DHT22;21637;53.352;-6.356;2024-02-28T14:24:10;13.10;99.90
35531;DHT22;21637;53.352;-6.356;2024-02-28T14:26:36;13.10;99.90
35531;DHT22;21637;53.352;-6.356;2024-02-28T14:29:02;13.10;99.90
35531;DHT22;21637;53.352;-6.356;2024-02-28T14:31:29;13.00;99.90
35531;DHT22;21637;53.352;-6.356;2024-02-28T14:33:55;13.00;99.90
35531;DHT22;21637;53.352;-6.356;2024-02-28T14:36:23;12.90;99.90
35531;DHT22;21637;53.352;-6.356;2024-02-28T14:38:50;13.00;99.90
35531;DHT22;21637;53.352;-6.356;2024-02-28T14:41:16;12.90;99.90
35531;DHT22;21637;53.352;-6.356;2024-02-28T14:43:42;13.00;99.90
35531;DHT22;21637;53.352;-6.356;2024-02-28T14:46:08;12.90;99.90
35531;DHT22;21637;53.352;-6.356;2024-02-28T14:48:35;12.90;99.90
35531;DHT22;21637;53.352;-6.356;2024-02-28T14:51:01;13.10;99.90
35531;DHT22;21637;53.352;-6.356;2024-02-28T14:53:28;13.10;99.90
35531;DHT22;21637;53.352;-6.356;2024-02-28T14:55:53;12.90;99.90
35531;DHT22;21637;53.352;-6.356;2024-02-28T14:58:19;13.00;99.90
35531;DHT22;21637;53.352;-6.356;2024-02-28T15:00:45;12.90;99.90
35531;DHT22;21637;53.352;-6.356;2024-02-28T15:03:14;13.00;99.90
35531;DHT22;21637;53.352;-6.356;2024-02-28T15:05:39;13.00;99.90
35531;DHT22;21637;53.352;-6.356;2024-02-28T15:08:09;13.00;99.90
35531;DHT22;21637;53.352;-6.356;2024-02-28T15:10:34;12.90;99.90
35531;DHT22;21637;53.352;-6.356;2024-02-28T15:13:00;12.90;99.90
35531;DHT22;21637;53.352;-6.356;2024-02-28T15:15:26;12.80;99.90
35531;DHT22;21637;53.352;-6.356;2024-02-28T15:17:53;12.90;99.90
35531;DHT22;21637;53.352;-6.356;2024-02-28T15:20:19;12.90;99.90